Welwyn, United Kingdom
Current Conditions -  °F | °C
As of 2:50 AM on Friday 21 Nov 2014 (Local Time) from EGGW Reporting Station
Haze Haze  
Wind Chill: 35°   Ceiling: Unl
Heat Index: 39°   Visibility: 3mi
Dew Point: 39°   Wind: 6mph
Humidity: 100%   Direction: 80°E
Pressure: 30.15"   Gusts: NA
Location:  51.81°N, 0.18°W
Report Text: EGGW 210250Z 08005KT 5000 BR NSC 04/04 Q1021
Loading
Personal Weather Stations






























Interactive Weather Map New forecast layout! Learn more

10-Day Weather Forecast

Advertisements
Track Severe Weather on mobile